createdAt,value
2023-04-27T00:01:41.056Z,100.00
2023-04-27T00:04:13.852Z,100.00
2023-04-27T00:06:42.731Z,100.00
2023-04-27T00:09:13.339Z,100.00
2023-04-27T00:11:44.450Z,100.00
2023-04-27T00:14:18.627Z,100.00
2023-04-27T00:16:51.818Z,100.00
2023-04-27T00:19:20.041Z,100.00
2023-04-27T00:21:48.376Z,100.00
2023-04-27T00:24:16.651Z,100.00
2023-04-27T00:26:44.759Z,100.00
2023-04-27T00:29:17.224Z,100.00
2023-04-27T00:31:46.359Z,100.00
2023-04-27T00:34:14.566Z,100.00
2023-04-27T00:36:52.021Z,100.00
2023-04-27T00:39:21.765Z,100.00
2023-04-27T00:41:51.994Z,100.00
2023-04-27T00:44:27.318Z,100.00
2023-04-27T00:46:56.417Z,100.00
2023-04-27T00:49:25.231Z,100.00
2023-04-27T00:51:56.235Z,100.00
2023-04-27T00:54:24.880Z,100.00
2023-04-27T00:56:53.962Z,100.00
2023-04-27T00:59:24.713Z,100.00
2023-04-27T01:02:00.809Z,100.00
2023-04-27T01:04:29.996Z,100.00
2023-04-27T01:07:05.257Z,100.00
2023-04-27T01:09:35.432Z,100.00
2023-04-27T01:12:03.664Z,100.00
2023-04-27T01:14:34.687Z,100.00
2023-04-27T01:17:08.826Z,100.00
2023-04-27T01:19:40.357Z,100.00
2023-04-27T01:22:08.527Z,100.00
2023-04-27T01:24:38.071Z,100.00
2023-04-27T01:27:06.983Z,100.00
2023-04-27T01:29:37.023Z,100.00
2023-04-27T01:32:06.177Z,100.00
2023-04-27T01:34:34.539Z,100.00
2023-04-27T01:37:02.733Z,100.00
2023-04-27T01:39:32.913Z,100.00
2023-04-27T01:42:04.003Z,100.00
2023-04-27T01:44:37.135Z,100.00
2023-04-27T01:47:05.506Z,100.00
2023-04-27T01:52:23.772Z,100.00
2023-04-27T01:54:52.036Z,100.00
2023-04-27T02:00:12.797Z,100.00
2023-04-27T02:02:53.641Z,100.00
2023-04-27T02:05:22.149Z,100.00
2023-04-27T02:07:50.716Z,100.00
2023-04-27T02:10:19.064Z,100.00
2023-04-27T02:21:16.804Z,100.00
2023-04-27T02:32:10.377Z,100.00
2023-04-27T02:34:39.921Z,100.00
2023-04-27T02:37:09.090Z,100.00
2023-04-27T02:48:01.817Z,100.00
2023-04-27T02:50:29.809Z,100.00
2023-04-27T02:52:58.019Z,100.00
2023-04-27T02:58:16.840Z,100.00
2023-04-27T03:03:32.686Z,100.00
2023-04-27T03:08:47.336Z,100.00
2023-04-27T03:11:15.570Z,100.00
2023-04-27T03:13:46.918Z,100.00
2023-04-27T03:16:19.162Z,100.00
2023-04-27T03:19:43.508Z,100.00
2023-04-27T03:22:30.703Z,100.00
2023-04-27T03:24:59.111Z,100.00
2023-04-27T03:27:31.497Z,100.00
2023-04-27T03:29:59.896Z,100.00
2023-04-27T03:32:29.515Z,100.00
2023-04-27T03:35:00.926Z,100.00
2023-04-27T03:37:29.768Z,100.00
2023-04-27T03:39:58.431Z,100.00
2023-04-27T03:42:26.680Z,100.00
2023-04-27T03:44:54.986Z,100.00
2023-04-27T03:47:23.125Z,100.00
2023-04-27T03:49:52.678Z,100.00
2023-04-27T03:52:21.132Z,100.00
2023-04-27T03:54:49.715Z,100.00
2023-04-27T03:57:19.404Z,100.00
2023-04-27T03:59:48.682Z,100.00
2023-04-27T04:02:17.291Z,100.00
2023-04-27T04:04:45.952Z,100.00
2023-04-27T04:07:15.494Z,100.00
2023-04-27T04:09:45.248Z,100.00
2023-04-27T04:12:16.275Z,100.00
2023-04-27T04:14:44.461Z,100.00
2023-04-27T04:17:13.915Z,100.00
2023-04-27T04:19:42.584Z,100.00
2023-04-27T04:22:10.750Z,100.00
2023-04-27T04:24:40.255Z,100.00
2023-04-27T04:27:08.531Z,100.00
2023-04-27T04:29:36.762Z,100.00
2023-04-27T04:32:05.033Z,100.00
2023-04-27T04:34:34.351Z,100.00
2023-04-27T04:37:02.580Z,100.00
2023-04-27T04:39:31.893Z,100.00
2023-04-27T04:42:01.549Z,100.00
2023-04-27T04:44:32.480Z,100.00
2023-04-27T04:47:00.814Z,100.00
2023-04-27T04:49:28.997Z,100.00
2023-04-27T04:51:57.314Z,100.00
2023-04-27T04:54:25.444Z,100.00
2023-04-27T04:56:53.639Z,100.00
2023-04-27T04:59:26.940Z,100.00
2023-04-27T05:01:56.070Z,100.00
2023-04-27T05:04:24.692Z,100.00
2023-04-27T05:06:53.105Z,100.00
2023-04-27T05:09:24.023Z,100.00
2023-04-27T05:11:56.831Z,100.00
2023-04-27T05:14:27.713Z,100.00
2023-04-27T05:16:56.088Z,100.00
2023-04-27T05:19:25.228Z,100.00
2023-04-27T05:21:57.982Z,100.00
2023-04-27T05:24:29.060Z,100.00
2023-04-27T05:26:57.270Z,100.00
2023-04-27T05:29:27.253Z,100.00
2023-04-27T05:31:55.786Z,100.00
2023-04-27T05:34:26.832Z,100.00
2023-04-27T05:36:54.994Z,100.00
2023-04-27T05:39:24.999Z,100.00
2023-04-27T05:41:53.918Z,100.00
2023-04-27T05:44:22.260Z,100.00
2023-04-27T05:46:51.953Z,100.00
2023-04-27T05:49:20.084Z,100.00
2023-04-27T05:51:48.313Z,100.00
2023-04-27T05:54:19.110Z,100.00
2023-04-27T05:56:47.262Z,100.00
2023-04-27T05:59:15.887Z,100.00
2023-04-27T06:01:44.299Z,100.00
2023-04-27T06:04:13.904Z,100.00
2023-04-27T06:06:42.276Z,100.00
2023-04-27T06:09:10.632Z,100.00
2023-04-27T06:11:38.771Z,100.00
2023-04-27T06:14:06.982Z,100.00
2023-04-27T06:16:35.297Z,100.00
2023-04-27T06:19:05.624Z,100.00
2023-04-27T06:21:35.449Z,100.00
2023-04-27T06:24:03.857Z,100.00
2023-04-27T06:26:32.012Z,100.00
2023-04-27T06:29:00.601Z,100.00
2023-04-27T06:31:28.859Z,100.00
2023-04-27T06:33:57.228Z,100.00
2023-04-27T06:36:26.765Z,100.00
2023-04-27T06:38:56.602Z,100.00
2023-04-27T06:41:26.022Z,100.00
2023-04-27T06:43:55.819Z,100.00
2023-04-27T06:46:24.993Z,100.00
2023-04-27T06:48:53.528Z,100.00
2023-04-27T06:51:24.215Z,100.00
2023-04-27T06:53:53.158Z,100.00
2023-04-27T06:56:22.946Z,100.00
2023-04-27T06:58:53.023Z,100.00
2023-04-27T07:01:21.505Z,100.00
2023-04-27T07:03:49.901Z,100.00
2023-04-27T07:06:18.286Z,100.00
2023-04-27T07:08:46.545Z,100.00
2023-04-27T07:11:17.652Z,100.00
2023-04-27T07:13:47.244Z,100.00
2023-04-27T07:16:16.492Z,100.00
2023-04-27T07:18:47.446Z,100.00
2023-04-27T07:21:15.920Z,100.00
2023-04-27T07:23:44.401Z,100.00
2023-04-27T07:26:12.993Z,100.00
2023-04-27T07:28:41.174Z,100.00
2023-04-27T07:31:10.903Z,100.00
2023-04-27T07:33:38.857Z,100.00
2023-04-27T07:36:08.566Z,100.00
2023-04-27T07:38:38.373Z,94.54
2023-04-27T07:41:07.461Z,94.20
2023-04-27T07:43:38.883Z,89.47
2023-04-27T07:46:07.647Z,82.49
2023-04-27T07:48:37.280Z,83.17
2023-04-27T07:51:05.527Z,86.21
2023-04-27T07:53:37.111Z,89.79
2023-04-27T07:56:06.941Z,91.07
2023-04-27T07:58:37.910Z,85.97
2023-04-27T08:01:08.639Z,83.73
2023-04-27T08:03:41.145Z,79.13
2023-04-27T08:06:13.034Z,78.26
2023-04-27T08:08:41.494Z,75.86
2023-04-27T08:11:11.631Z,73.22
2023-04-27T08:13:39.846Z,69.20
2023-04-27T08:16:08.231Z,67.54
2023-04-27T08:18:37.768Z,62.05
2023-04-27T08:21:06.096Z,59.85
2023-04-27T08:23:34.369Z,61.77
2023-04-27T08:26:02.529Z,60.41
2023-04-27T08:28:30.785Z,58.81
2023-04-27T08:30:59.009Z,56.84
2023-04-27T08:33:27.155Z,57.67
2023-04-27T08:35:56.631Z,55.65
2023-04-27T08:38:25.729Z,58.35
2023-04-27T08:40:53.954Z,53.75
2023-04-27T08:43:22.138Z,55.08
2023-04-27T08:45:51.738Z,54.89
2023-04-27T08:48:20.263Z,55.46
2023-04-27T08:50:51.787Z,55.93
2023-04-27T08:53:22.671Z,54.57
2023-04-27T08:55:51.536Z,56.62
2023-04-27T08:58:19.778Z,55.89
2023-04-27T09:00:50.719Z,50.32
2023-04-27T09:03:24.492Z,48.40
2023-04-27T09:06:04.794Z,47.87
2023-04-27T09:08:44.318Z,47.70
2023-04-27T09:11:13.169Z,47.98
2023-04-27T09:13:45.053Z,49.11
2023-04-27T09:16:14.885Z,47.70
2023-04-27T09:18:44.432Z,48.05
2023-04-27T09:21:22.679Z,47.89
2023-04-27T09:23:52.426Z,47.26
2023-04-27T09:26:24.976Z,46.75
2023-04-27T09:28:55.804Z,48.09
2023-04-27T09:31:31.922Z,49.46
2023-04-27T09:34:00.271Z,45.68
2023-04-27T09:36:28.898Z,44.00
2023-04-27T09:38:59.010Z,43.72
2023-04-27T09:41:28.236Z,43.18
2023-04-27T09:43:59.152Z,44.69
2023-04-27T09:46:29.713Z,41.54
2023-04-27T09:48:59.105Z,46.52
2023-04-27T09:51:28.660Z,43.85
2023-04-27T09:54:01.149Z,44.55
2023-04-27T09:56:52.640Z,41.99
2023-04-27T09:59:37.503Z,43.05
2023-04-27T10:02:20.860Z,42.73
2023-04-27T10:05:11.534Z,46.87
2023-04-27T10:07:40.979Z,48.41
2023-04-27T10:10:18.256Z,45.18
2023-04-27T10:12:57.367Z,45.54
2023-04-27T10:15:30.095Z,39.85
2023-04-27T10:18:06.111Z,41.37
2023-04-27T10:20:37.072Z,41.68
2023-04-27T10:23:06.427Z,43.89
2023-04-27T10:25:41.398Z,44.79
2023-04-27T10:28:16.325Z,41.65
2023-04-27T10:30:47.152Z,39.80
2023-04-27T10:33:18.739Z,39.96
2023-04-27T10:35:55.817Z,40.17
2023-04-27T10:38:30.073Z,43.21
2023-04-27T10:41:02.194Z,45.00
2023-04-27T10:43:32.021Z,44.13
2023-04-27T10:46:08.697Z,42.14
2023-04-27T10:48:38.436Z,43.31
2023-04-27T10:51:07.419Z,41.26
2023-04-27T10:53:36.447Z,37.31
2023-04-27T10:56:07.186Z,41.29
2023-04-27T10:58:48.215Z,36.85
2023-04-27T11:01:25.290Z,36.68
2023-04-27T11:03:57.083Z,35.77
2023-04-27T11:06:25.548Z,38.01
2023-04-27T11:08:53.948Z,34.68
2023-04-27T11:11:26.050Z,36.13
2023-04-27T11:13:54.536Z,37.40
2023-04-27T11:16:22.856Z,35.90
2023-04-27T11:18:51.185Z,35.74
2023-04-27T11:21:22.031Z,35.34
2023-04-27T11:23:50.328Z,35.64
2023-04-27T11:26:21.493Z,37.25
2023-04-27T11:29:01.438Z,36.30
2023-04-27T11:31:40.823Z,38.10
2023-04-27T11:34:09.097Z,41.08
2023-04-27T11:36:37.728Z,40.38
2023-04-27T11:39:07.384Z,40.04
2023-04-27T11:41:36.751Z,38.00
2023-04-27T11:44:08.409Z,37.23
2023-04-27T11:46:37.947Z,41.57
2023-04-27T11:49:08.870Z,39.95
2023-04-27T11:51:37.770Z,38.29
2023-04-27T11:54:07.588Z,42.75
2023-04-27T11:56:37.975Z,36.69
2023-04-27T18:11:28.169Z,71.44
2023-04-27T18:13:57.924Z,75.58
2023-04-27T18:16:26.153Z,81.91
2023-04-27T18:18:54.393Z,82.37
2023-04-27T18:21:22.730Z,82.67
2023-04-27T18:23:50.830Z,90.87
2023-04-27T18:26:19.035Z,95.94
2023-04-27T18:28:48.733Z,96.53
2023-04-27T18:31:17.560Z,99.67
2023-04-27T18:33:46.398Z,100.00
2023-04-27T18:36:14.622Z,100.00
2023-04-27T18:38:42.752Z,100.00
2023-04-27T18:41:11.166Z,100.00
2023-04-27T18:43:39.565Z,100.00
2023-04-27T18:46:09.312Z,100.00
2023-04-27T18:48:37.809Z,100.00
2023-04-27T18:51:06.293Z,100.00
2023-04-27T18:53:34.810Z,100.00
2023-04-27T18:56:05.755Z,100.00
2023-04-27T18:58:34.838Z,100.00
2023-04-27T19:01:03.092Z,100.00
2023-04-27T19:03:33.263Z,100.00
2023-04-27T19:06:02.025Z,100.00
2023-04-27T19:08:31.053Z,100.00
2023-04-27T19:11:00.320Z,100.00
2023-04-27T19:13:28.737Z,100.00
2023-04-27T19:15:58.605Z,100.00
2023-04-27T19:18:27.588Z,100.00
2023-04-27T19:20:58.191Z,100.00
2023-04-27T19:23:26.748Z,100.00
2023-04-27T19:25:57.430Z,100.00
2023-04-27T19:28:28.669Z,100.00
2023-04-27T19:30:57.046Z,100.00
2023-04-27T19:33:25.479Z,100.00
2023-04-27T19:35:53.847Z,100.00
2023-04-27T19:38:25.167Z,100.00
2023-04-27T19:40:54.130Z,100.00
2023-04-27T19:43:23.158Z,100.00
2023-04-27T19:45:52.424Z,100.00
2023-04-27T19:48:20.743Z,100.00
2023-04-27T19:50:48.925Z,100.00
2023-04-27T19:53:17.194Z,100.00
2023-04-27T19:55:46.700Z,100.00
2023-04-27T19:58:15.002Z,100.00
2023-04-27T20:00:43.513Z,100.00
2023-04-27T20:08:07.407Z,100.00
2023-04-27T20:15:12.769Z,100.00
2023-04-27T20:58:31.057Z,100.00
2023-04-27T21:14:14.874Z,100.00
2023-04-27T21:17:57.167Z,100.00
2023-04-27T21:21:40.340Z,100.00
2023-04-27T21:29:23.297Z,100.00
2023-04-27T21:33:05.101Z,100.00
2023-04-27T21:36:47.125Z,100.00
2023-04-27T21:44:29.463Z,100.00
2023-04-27T21:51:35.790Z,100.00
2023-04-27T21:54:42.615Z,100.00
2023-04-27T21:57:30.048Z,100.00
2023-04-27T22:00:34.795Z,100.00
2023-04-27T22:03:58.346Z,100.00
2023-04-27T22:07:24.915Z,100.00
2023-04-27T22:10:29.575Z,100.00
2023-04-27T22:13:52.928Z,100.00
2023-04-27T22:17:18.019Z,100.00
2023-04-27T22:20:41.148Z,100.00
2023-04-27T22:23:30.970Z,100.00
2023-04-27T22:25:59.099Z,100.00
2023-04-27T22:28:27.504Z,100.00
2023-04-27T22:30:56.519Z,100.00
2023-04-27T22:33:24.784Z,100.00
2023-04-27T22:35:53.150Z,100.00
2023-04-27T22:38:21.808Z,100.00
2023-04-27T22:40:51.432Z,99.51
2023-04-27T22:43:19.590Z,100.00
2023-04-27T22:45:48.077Z,100.00
2023-04-27T22:48:16.706Z,100.00
2023-04-27T22:50:45.049Z,100.00
2023-04-27T22:53:13.197Z,100.00
2023-04-27T22:55:41.616Z,100.00
2023-04-27T22:58:11.083Z,100.00
2023-04-27T23:00:39.638Z,100.00
2023-04-27T23:03:08.240Z,100.00
2023-04-27T23:05:37.263Z,100.00
2023-04-27T23:08:05.644Z,100.00
2023-04-27T23:10:34.766Z,100.00
2023-04-27T23:13:03.512Z,100.00
2023-04-27T23:15:33.180Z,100.00
2023-04-27T23:18:04.384Z,100.00
2023-04-27T23:20:34.726Z,100.00
2023-04-27T23:23:03.004Z,100.00
2023-04-27T23:25:33.150Z,100.00
2023-04-27T23:28:01.638Z,100.00
2023-04-27T23:30:30.973Z,100.00
2023-04-27T23:33:01.178Z,100.00
2023-04-27T23:35:29.784Z,100.00
2023-04-27T23:37:58.099Z,100.00
2023-04-27T23:40:28.885Z,100.00
2023-04-27T23:42:57.110Z,100.00
2023-04-27T23:45:25.734Z,100.00
2023-04-27T23:47:53.927Z,100.00
2023-04-27T23:50:23.701Z,100.00
2023-04-27T23:52:52.536Z,100.00
2023-04-27T23:55:21.372Z,100.00
2023-04-27T23:57:52.131Z,100.00
